Time;durP1;ratioP1;P1;durP2;ratioP2;P2;SDS_P1;SDS_P2;PMS_P1;PMS_P2;Temp;Humidity;BMP_temperature;BMP_pressure;BME280_temperature;BME280_humidity;BME280_pressure;Samples;Min_cycle;Max_cycle;Signal;HPM_P1;HPM_P2
2023/03/21 00:00:53;;;;;;;9.50;1.90;;;;;;;;;;5018119;28;20064;-48
2023/03/21 00:03:21;;;;;;;5.00;1.57;;;;;;;;;;4324189;28;10000339;-46
2023/03/21 00:05:52;;;;;;;7.55;1.15;;;;;;;;;;5013781;28;20746;-47
2023/03/21 00:08:19;;;;;;;4.93;1.38;;;;;;;;;;5036021;28;20106;-47
2023/03/21 00:10:47;;;;;;;7.23;1.80;;;;;;;;;;5011820;28;20037;-45
2023/03/21 00:13:15;;;;;;;7.50;1.58;;;;;;;;;;5018735;28;20094;-45
2023/03/21 00:15:50;;;;;;;9.32;1.58;;;;;;;;;;5012402;28;20041;-46
2023/03/21 00:18:40;;;;;;;5.90;1.10;;;;;;;;;;5012467;28;20118;-46
2023/03/21 00:21:10;;;;;;;6.57;1.50;;;;;;;;;;5031052;28;20063;-48
2023/03/21 00:23:59;;;;;;;5.00;1.30;;;;;;;;;;5018708;28;20400;-46
2023/03/21 00:26:27;;;;;;;5.82;1.20;;;;;;;;;;5027214;28;20037;-46
2023/03/21 00:28:58;;;;;;;6.03;1.70;;;;;;;;;;5015370;28;20269;-46
2023/03/21 00:31:26;;;;;;;8.45;1.67;;;;;;;;;;5009325;28;20563;-46
2023/03/21 00:33:55;;;;;;;8.07;1.40;;;;;;;;;;5028480;28;21082;-45
2023/03/21 00:36:24;;;;;;;7.70;1.57;;;;;;;;;;5025561;28;20080;-47
2023/03/21 00:38:54;;;;;;;7.60;1.25;;;;;;;;;;5037750;28;20391;-49
2023/03/21 00:41:22;;;;;;;6.88;1.38;;;;;;;;;;5027263;28;20315;-49
2023/03/21 00:44:08;;;;;;;5.43;1.20;;;;;;;;;;5043084;28;20056;-49
2023/03/21 00:46:35;;;;;;;6.47;1.42;;;;;;;;;;5007032;28;20040;-46
2023/03/21 00:49:20;;;;;;;6.77;1.43;;;;;;;;;;5028505;28;20041;-46
2023/03/21 00:51:50;;;;;;;7.00;1.08;;;;;;;;;;5032776;28;20491;-48
2023/03/21 00:54:18;;;;;;;6.72;1.58;;;;;;;;;;5021375;28;20481;-48
2023/03/21 00:56:46;;;;;;;8.20;1.58;;;;;;;;;;5031658;28;20048;-50
2023/03/21 00:59:13;;;;;;;4.75;1.27;;;;;;;;;;5019369;28;20135;-45
2023/03/21 01:01:41;;;;;;;6.10;1.23;;;;;;;;;;5038015;28;20041;-48
2023/03/21 01:04:13;;;;;;;8.15;1.60;;;;;;;;;;5017695;28;20470;-45
2023/03/21 01:06:43;;;;;;;9.35;1.30;;;;;;;;;;5028583;28;20095;-46
2023/03/21 01:09:12;;;;;;;8.77;1.05;;;;;;;;;;5027396;28;20041;-46
2023/03/21 01:11:40;;;;;;;8.85;1.00;;;;;;;;;;5045786;28;20943;-48
2023/03/21 01:14:08;;;;;;;6.97;1.47;;;;;;;;;;5036530;28;20590;-46
2023/03/21 01:16:49;;;;;;;6.63;1.30;;;;;;;;;;5024210;28;20106;-47
2023/03/21 01:19:18;;;;;;;5.10;1.50;;;;;;;;;;5040416;28;20120;-46
2023/03/21 01:22:07;;;;;;;5.80;1.20;;;;;;;;;;5034434;28;20067;-50
2023/03/21 01:24:35;;;;;;;9.07;1.20;;;;;;;;;;5039967;28;20079;-45
2023/03/21 01:27:10;;;;;;;8.53;1.30;;;;;;;;;;5037879;28;20530;-47
2023/03/21 01:29:37;;;;;;;6.05;1.35;;;;;;;;;;5026261;28;20040;-45
2023/03/21 01:32:06;;;;;;;6.40;0.80;;;;;;;;;;5031733;28;20071;-48
2023/03/21 01:34:34;;;;;;;6.60;1.40;;;;;;;;;;5004306;28;20706;-47
2023/03/21 01:37:01;;;;;;;6.07;1.15;;;;;;;;;;5017444;28;20068;-47
2023/03/21 01:39:33;;;;;;;4.20;0.87;;;;;;;;;;5050822;28;20043;-48
2023/03/21 01:42:03;;;;;;;7.55;0.93;;;;;;;;;;5039942;28;20053;-48
2023/03/21 01:44:31;;;;;;;7.50;1.30;;;;;;;;;;5018022;28;20043;-48
2023/03/21 01:46:59;;;;;;;7.70;0.90;;;;;;;;;;5032225;28;20036;-45
2023/03/21 01:49:45;;;;;;;5.25;0.95;;;;;;;;;;5019196;28;20090;-46
2023/03/21 01:52:15;;;;;;;5.50;0.90;;;;;;;;;;5044045;28;20486;-47
2023/03/21 01:55:02;;;;;;;4.60;0.85;;;;;;;;;;5027553;28;20139;-46
2023/03/21 01:57:32;;;;;;;7.72;1.20;;;;;;;;;;5026321;28;20032;-45
2023/03/21 02:00:15;;;;;;;7.03;1.92;;;;;;;;;;5037262;28;20041;-46
2023/03/21 02:02:53;;;;;;;7.88;0.73;;;;;;;;;;5020382;28;20064;-49
2023/03/21 02:05:32;;;;;;;4.77;0.90;;;;;;;;;;5022573;28;20099;-46
2023/03/21 02:08:00;;;;;;;5.25;1.10;;;;;;;;;;5043625;28;20044;-46
2023/03/21 02:10:31;;;;;;;10.10;1.63;;;;;;;;;;5022271;28;20078;-48
2023/03/21 02:13:08;;;;;;;6.03;0.90;;;;;;;;;;5009154;28;20118;-46
2023/03/21 02:15:36;;;;;;;6.00;1.13;;;;;;;;;;5039673;28;20441;-48
2023/03/21 02:18:07;;;;;;;7.07;1.50;;;;;;;;;;5030590;28;20050;-46
2023/03/21 02:20:57;;;;;;;6.97;1.42;;;;;;;;;;5031942;28;20040;-47
2023/03/21 02:23:39;;;;;;;9.35;1.85;;;;;;;;;;5019630;28;20492;-47
2023/03/21 02:26:20;;;;;;;9.38;1.48;;;;;;;;;;5026319;28;20597;-47
2023/03/21 02:28:53;;;;;;;5.65;1.30;;;;;;;;;;5028832;28;20683;-45
2023/03/21 02:31:34;;;;;;;6.40;1.10;;;;;;;;;;5025307;28;20552;-46
2023/03/21 02:34:20;;;;;;;6.88;1.45;;;;;;;;;;5023461;28;20041;-46
2023/03/21 02:37:02;;;;;;;8.18;1.60;;;;;;;;;;5003900;28;20123;-48
2023/03/21 02:39:44;;;;;;;6.18;1.30;;;;;;;;;;5039300;28;20554;-46
2023/03/21 02:42:16;;;;;;;7.28;1.30;;;;;;;;;;5032134;28;20032;-46
2023/03/21 02:44:47;;;;;;;4.93;0.97;;;;;;;;;;5021424;28;20037;-44
2023/03/21 02:47:17;;;;;;;5.15;1.15;;;;;;;;;;5036598;28;20037;-45
2023/03/21 02:49:47;;;;;;;5.90;1.38;;;;;;;;;;5047675;28;20040;-47
2023/03/21 02:52:17;;;;;;;6.93;1.30;;;;;;;;;;5009318;28;20037;-45
2023/03/21 02:55:06;;;;;;;7.20;1.33;;;;;;;;;;5032539;28;20049;-45
2023/03/21 02:57:34;;;;;;;6.73;1.50;;;;;;;;;;5036514;28;20131;-50
2023/03/21 03:00:18;;;;;;;6.57;1.20;;;;;;;;;;5003469;28;20492;-46
2023/03/21 03:02:46;;;;;;;6.00;0.90;;;;;;;;;;4996297;28;20048;-45
2023/03/21 03:05:17;;;;;;;5.47;1.30;;;;;;;;;;5011682;28;20541;-50
2023/03/21 03:07:56;;;;;;;6.10;1.25;;;;;;;;;;5021003;28;20217;-46
2023/03/21 03:10:32;;;;;;;4.90;1.13;;;;;;;;;;5012259;28;20059;-45
2023/03/21 03:13:03;;;;;;;6.35;1.45;;;;;;;;;;5015013;28;20041;-47
2023/03/21 03:15:37;;;;;;;5.82;1.30;;;;;;;;;;5002196;28;20548;-48
2023/03/21 03:18:11;;;;;;;6.03;1.40;;;;;;;;;;5016028;28;20045;-45
2023/03/21 03:20:45;;;;;;;6.40;1.30;;;;;;;;;;5007906;28;20099;-46
2023/03/21 03:23:18;;;;;;;4.20;0.97;;;;;;;;;;5005498;28;20569;-46
2023/03/21 03:25:51;;;;;;;8.30;1.60;;;;;;;;;;5003832;28;20040;-48
2023/03/21 03:28:21;;;;;;;4.35;1.00;;;;;;;;;;5013485;28;20589;-47
2023/03/21 03:30:50;;;;;;;5.50;0.90;;;;;;;;;;5006580;28;20672;-46
2023/03/21 03:33:35;;;;;;;6.20;0.90;;;;;;;;;;5005650;28;20450;-48
2023/03/21 03:36:04;;;;;;;6.77;1.03;;;;;;;;;;5006992;28;20057;-46
2023/03/21 03:38:35;;;;;;;5.30;1.10;;;;;;;;;;5013128;28;20768;-48
2023/03/21 03:41:09;;;;;;;8.63;1.02;;;;;;;;;;5020459;28;20041;-45
2023/03/21 03:43:43;;;;;;;5.50;1.20;;;;;;;;;;5019079;28;20419;-45
2023/03/21 03:46:13;;;;;;;4.97;0.98;;;;;;;;;;5013992;28;20055;-45
2023/03/21 03:48:45;;;;;;;10.53;2.30;;;;;;;;;;5008585;28;20056;-46
2023/03/21 03:51:15;;;;;;;7.72;1.30;;;;;;;;;;4992621;28;20041;-46
2023/03/21 03:53:44;;;;;;;7.97;1.27;;;;;;;;;;5009705;28;20124;-46
2023/03/21 03:56:14;;;;;;;5.32;1.27;;;;;;;;;;4987844;28;20119;-45
2023/03/21 03:58:42;;;;;;;6.65;0.85;;;;;;;;;;5018902;28;21255;-46
2023/03/21 04:01:13;;;;;;;8.87;1.43;;;;;;;;;;5006808;28;20115;-44
2023/03/21 04:03:41;;;;;;;8.35;1.60;;;;;;;;;;5031211;28;20429;-47
2023/03/21 04:06:18;;;;;;;8.75;1.70;;;;;;;;;;4977903;28;20042;-47
2023/03/21 04:08:46;;;;;;;6.35;1.27;;;;;;;;;;5015892;28;20040;-48
2023/03/21 04:11:15;;;;;;;6.57;1.40;;;;;;;;;;4996030;28;20041;-45
2023/03/21 04:13:43;;;;;;;7.67;1.73;;;;;;;;;;5009075;28;20059;-49
2023/03/21 04:16:11;;;;;;;10.48;2.33;;;;;;;;;;5014586;28;20040;-46
2023/03/21 04:18:39;;;;;;;6.10;1.48;;;;;;;;;;5003966;28;20041;-47
2023/03/21 04:21:08;;;;;;;9.80;1.92;;;;;;;;;;5018704;28;20763;-45
2023/03/21 04:23:35;;;;;;;6.95;1.65;;;;;;;;;;5005406;28;20384;-46
2023/03/21 04:26:04;;;;;;;7.77;1.57;;;;;;;;;;5011444;28;20506;-48
2023/03/21 04:28:34;;;;;;;5.05;1.17;;;;;;;;;;5003481;28;20037;-47
2023/03/21 04:31:02;;;;;;;11.18;1.48;;;;;;;;;;5010110;28;20041;-48
2023/03/21 04:33:46;;;;;;;4.63;1.17;;;;;;;;;;5017856;28;20056;-45
2023/03/21 04:36:23;;;;;;;5.03;1.27;;;;;;;;;;5016833;28;20132;-46
2023/03/21 04:38:51;;;;;;;6.33;1.03;;;;;;;;;;5010447;28;21447;-47
2023/03/21 04:41:21;;;;;;;5.82;1.00;;;;;;;;;;5009077;28;20120;-46
2023/03/21 04:43:51;;;;;;;4.80;1.20;;;;;;;;;;4999571;28;20120;-46
2023/03/21 04:46:19;;;;;;;4.53;1.05;;;;;;;;;;5010884;28;20045;-45
2023/03/21 04:48:47;;;;;;;5.22;1.25;;;;;;;;;;5034670;28;20546;-46
2023/03/21 04:51:15;;;;;;;7.27;1.37;;;;;;;;;;5015918;28;20136;-46
2023/03/21 04:53:44;;;;;;;5.35;0.70;;;;;;;;;;5021558;28;20064;-45
2023/03/21 04:56:12;;;;;;;7.65;1.40;;;;;;;;;;4996796;28;20052;-45
2023/03/21 04:58:42;;;;;;;5.10;0.88;;;;;;;;;;5000886;28;20045;-46
2023/03/21 05:01:13;;;;;;;4.95;1.25;;;;;;;;;;5029135;28;20102;-45
2023/03/21 05:03:41;;;;;;;5.80;1.00;;;;;;;;;;5006635;28;20065;-46
2023/03/21 05:06:09;;;;;;;6.53;1.10;;;;;;;;;;5023831;28;20109;-48
2023/03/21 05:08:37;;;;;;;8.40;1.08;;;;;;;;;;5004486;28;20041;-46
2023/03/21 05:11:05;;;;;;;5.05;1.15;;;;;;;;;;5020855;28;20470;-46
2023/03/21 05:13:33;;;;;;;3.95;1.00;;;;;;;;;;5015068;28;20037;-49
2023/03/21 05:16:00;;;;;;;4.33;0.60;;;;;;;;;;5014940;28;20051;-46
2023/03/21 05:18:33;;;;;;;7.50;1.20;;;;;;;;;;5009364;28;21030;-46
2023/03/21 05:21:03;;;;;;;5.00;1.25;;;;;;;;;;5022838;28;20037;-45
2023/03/21 05:23:30;;;;;;;4.68;0.98;;;;;;;;;;5010094;28;20033;-49
2023/03/21 05:25:58;;;;;;;4.32;1.08;;;;;;;;;;5014097;28;20041;-45
2023/03/21 05:28:30;;;;;;;5.00;1.40;;;;;;;;;;5016819;28;20090;-45
2023/03/21 05:30:57;;;;;;;4.30;0.90;;;;;;;;;;5004643;28;20072;-45
2023/03/21 05:33:27;;;;;;;4.97;0.98;;;;;;;;;;5014894;28;20131;-47
2023/03/21 05:35:56;;;;;;;8.25;0.90;;;;;;;;;;5002872;28;20081;-47
2023/03/21 05:38:24;;;;;;;4.63;0.90;;;;;;;;;;5021266;28;20068;-45
2023/03/21 05:40:54;;;;;;;3.93;0.87;;;;;;;;;;5023285;28;20555;-45
2023/03/21 05:43:21;;;;;;;4.50;0.95;;;;;;;;;;5004040;28;20068;-50
2023/03/21 05:45:51;;;;;;;3.95;0.82;;;;;;;;;;5012967;28;20128;-46
2023/03/21 05:48:19;;;;;;;8.35;1.10;;;;;;;;;;5012599;28;20038;-47
2023/03/21 05:50:46;;;;;;;5.28;0.80;;;;;;;;;;5006167;28;20047;-45
2023/03/21 05:53:15;;;;;;;4.60;0.83;;;;;;;;;;5004283;28;20037;-48
2023/03/21 05:55:43;;;;;;;8.00;1.00;;;;;;;;;;4994959;28;20128;-46
2023/03/21 05:58:10;;;;;;;6.43;0.82;;;;;;;;;;5014319;28;20621;-48
2023/03/21 06:00:38;;;;;;;4.75;0.80;;;;;;;;;;5013452;28;20821;-48
2023/03/21 06:03:06;;;;;;;4.57;0.80;;;;;;;;;;5019547;28;20048;-45
2023/03/21 06:05:37;;;;;;;3.07;0.60;;;;;;;;;;5025765;28;20146;-46
2023/03/21 06:08:05;;;;;;;4.28;0.88;;;;;;;;;;5016353;28;20075;-45
2023/03/21 06:10:34;;;;;;;4.93;1.00;;;;;;;;;;5005790;28;20068;-45
2023/03/21 06:13:02;;;;;;;5.13;1.02;;;;;;;;;;5029159;28;20041;-45
2023/03/21 06:15:30;;;;;;;6.47;0.88;;;;;;;;;;5003106;28;20045;-46
2023/03/21 06:17:57;;;;;;;5.03;1.13;;;;;;;;;;5021407;28;20128;-45
2023/03/21 06:20:25;;;;;;;5.78;1.10;;;;;;;;;;5017171;28;20044;-46
2023/03/21 06:22:53;;;;;;;7.05;1.10;;;;;;;;;;5016202;28;20102;-49
2023/03/21 06:25:21;;;;;;;6.70;1.00;;;;;;;;;;5020486;28;20044;-45
2023/03/21 06:27:52;;;;;;;7.88;1.13;;;;;;;;;;5022166;28;20488;-49
2023/03/21 06:30:20;;;;;;;4.57;0.93;;;;;;;;;;4999435;28;20131;-45
2023/03/21 06:32:48;;;;;;;5.07;0.90;;;;;;;;;;5009225;28;20185;-46
2023/03/21 06:35:15;;;;;;;6.82;1.25;;;;;;;;;;5008391;28;20130;-47
2023/03/21 06:37:44;;;;;;;9.00;1.15;;;;;;;;;;5009784;28;20131;-45
2023/03/21 06:40:12;;;;;;;9.27;1.05;;;;;;;;;;5013932;28;20555;-45
2023/03/21 06:42:40;;;;;;;8.70;1.50;;;;;;;;;;5018524;28;20521;-45
2023/03/21 06:45:09;;;;;;;10.00;1.15;;;;;;;;;;5015595;28;20132;-47
2023/03/21 06:47:37;;;;;;;9.77;1.35;;;;;;;;;;5004204;28;20119;-46
2023/03/21 06:50:06;;;;;;;8.45;1.20;;;;;;;;;;5017693;28;20041;-49
2023/03/21 06:52:34;;;;;;;5.55;1.17;;;;;;;;;;5010042;28;20429;-46
2023/03/21 06:55:02;;;;;;;9.67;1.57;;;;;;;;;;5004964;28;20033;-47
2023/03/21 06:57:29;;;;;;;12.48;1.20;;;;;;;;;;5007575;28;20049;-47
2023/03/21 06:59:57;;;;;;;6.43;1.30;;;;;;;;;;5009631;28;20041;-45
2023/03/21 07:02:26;;;;;;;4.28;0.80;;;;;;;;;;5013647;28;20115;-45
2023/03/21 07:04:54;;;;;;;8.27;0.93;;;;;;;;;;5015846;28;20033;-45
2023/03/21 07:07:24;;;;;;;6.77;1.03;;;;;;;;;;5022143;28;20131;-45
2023/03/21 07:09:52;;;;;;;7.28;0.93;;;;;;;;;;5018010;28;20037;-45
2023/03/21 07:12:20;;;;;;;8.02;1.00;;;;;;;;;;5016318;28;20037;-48
2023/03/21 07:14:47;;;;;;;6.10;0.90;;;;;;;;;;5012788;28;20033;-46
2023/03/21 07:17:15;;;;;;;5.28;0.90;;;;;;;;;;5007124;28;20099;-47
2023/03/21 07:19:47;;;;;;;7.43;1.27;;;;;;;;;;5012625;28;20068;-48
2023/03/21 07:22:15;;;;;;;8.73;0.90;;;;;;;;;;5020635;28;20051;-45
2023/03/21 07:24:43;;;;;;;5.65;0.82;;;;;;;;;;4996427;28;20071;-45
2023/03/21 07:27:13;;;;;;;5.30;1.63;;;;;;;;;;5023807;28;20064;-45
2023/03/21 07:29:42;;;;;;;8.90;1.33;;;;;;;;;;5008799;28;20059;-46
2023/03/21 07:32:10;;;;;;;5.80;1.23;;;;;;;;;;5008030;28;20072;-46
2023/03/21 07:34:38;;;;;;;3.17;0.60;;;;;;;;;;5013551;28;20147;-45
2023/03/21 07:37:07;;;;;;;10.98;1.27;;;;;;;;;;5016212;28;20047;-48
2023/03/21 07:39:35;;;;;;;8.73;1.20;;;;;;;;;;5009877;28;20056;-46
2023/03/21 07:42:02;;;;;;;8.45;1.05;;;;;;;;;;5014872;28;20045;-45
2023/03/21 07:44:32;;;;;;;6.50;1.03;;;;;;;;;;5005240;28;20049;-46
2023/03/21 07:47:00;;;;;;;9.77;1.30;;;;;;;;;;5006443;28;20037;-48
2023/03/21 07:49:27;;;;;;;3.83;0.82;;;;;;;;;;5007076;28;20099;-46
2023/03/21 07:51:55;;;;;;;6.60;0.80;;;;;;;;;;5009369;28;20123;-46
2023/03/21 07:54:24;;;;;;;6.05;1.15;;;;;;;;;;5012019;28;20091;-45
2023/03/21 07:56:52;;;;;;;6.53;0.70;;;;;;;;;;4997921;28;20044;-47
2023/03/21 07:59:19;;;;;;;6.18;1.00;;;;;;;;;;5010363;28;20072;-48
2023/03/21 08:01:47;;;;;;;6.65;1.15;;;;;;;;;;5002047;28;20458;-46
2023/03/21 08:04:15;;;;;;;8.93;0.90;;;;;;;;;;5009311;28;20073;-47
2023/03/21 08:06:42;;;;;;;7.80;1.15;;;;;;;;;;5021345;28;20072;-47
2023/03/21 08:09:10;;;;;;;5.37;0.80;;;;;;;;;;5002156;28;20072;-45
2023/03/21 08:11:40;;;;;;;8.98;0.98;;;;;;;;;;5017076;28;20074;-45
2023/03/21 08:14:07;;;;;;;4.28;0.60;;;;;;;;;;5012939;28;20125;-49
2023/03/21 08:16:37;;;;;;;5.70;0.88;;;;;;;;;;5000440;28;20122;-46
2023/03/21 08:19:05;;;;;;;8.30;0.80;;;;;;;;;;5007039;28;20128;-47
2023/03/21 08:21:33;;;;;;;7.73;0.60;;;;;;;;;;5012638;28;20044;-47
2023/03/21 08:24:00;;;;;;;5.47;0.65;;;;;;;;;;5010428;28;20135;-45
2023/03/21 08:26:28;;;;;;;3.45;0.50;;;;;;;;;;5000156;28;20064;-47
2023/03/21 08:28:57;;;;;;;6.40;0.70;;;;;;;;;;5015240;28;20491;-46
2023/03/21 08:31:25;;;;;;;4.22;0.88;;;;;;;;;;5001407;28;20691;-45
2023/03/21 08:33:54;;;;;;;4.00;0.50;;;;;;;;;;5016714;28;20509;-47
2023/03/21 08:36:23;;;;;;;4.90;0.63;;;;;;;;;;5016605;28;20485;-46
2023/03/21 08:38:55;;;;;;;3.03;0.45;;;;;;;;;;5009053;28;20080;-48
2023/03/21 08:41:24;;;;;;;5.97;0.50;;;;;;;;;;5007077;28;20112;-46
2023/03/21 08:43:52;;;;;;;4.03;0.43;;;;;;;;;;5013221;28;20041;-47
2023/03/21 08:46:21;;;;;;;5.83;0.60;;;;;;;;;;4987967;28;20065;-46
2023/03/21 08:48:49;;;;;;;4.25;0.40;;;;;;;;;;5017759;28;20041;-49
2023/03/21 08:51:16;;;;;;;4.43;0.40;;;;;;;;;;5012329;28;20080;-46
2023/03/21 08:53:49;;;;;;;6.22;0.50;;;;;;;;;;5000193;28;20049;-45
2023/03/21 08:56:17;;;;;;;5.13;0.50;;;;;;;;;;4996637;28;20472;-46
2023/03/21 08:58:46;;;;;;;4.20;0.40;;;;;;;;;;4995958;28;20128;-47
2023/03/21 09:01:14;;;;;;;5.78;0.43;;;;;;;;;;5020222;28;20044;-48
2023/03/21 09:03:43;;;;;;;3.40;0.30;;;;;;;;;;5017048;28;20493;-47
2023/03/21 09:06:13;;;;;;;6.25;0.32;;;;;;;;;;5007466;28;20570;-48
2023/03/21 09:08:42;;;;;;;7.18;0.60;;;;;;;;;;5005513;28;20036;-47
2023/03/21 09:11:10;;;;;;;3.47;0.53;;;;;;;;;;4635352;28;10000346;-47
2023/03/21 09:13:37;;;;;;;3.22;0.52;;;;;;;;;;5003528;28;21287;-47
2023/03/21 09:16:06;;;;;;;6.68;0.57;;;;;;;;;;5002691;28;20057;-46
2023/03/21 09:18:45;;;;;;;2.95;0.30;;;;;;;;;;5008457;28;20052;-46
2023/03/21 09:21:17;;;;;;;2.67;0.30;;;;;;;;;;5018153;28;20072;-46
2023/03/21 09:23:55;;;;;;;2.50;0.35;;;;;;;;;;5006852;28;20048;-46
2023/03/21 09:26:22;;;;;;;4.40;0.60;;;;;;;;;;5005824;28;20069;-49
2023/03/21 09:28:51;;;;;;;5.82;0.47;;;;;;;;;;4634004;28;9999887;-47
2023/03/21 09:31:21;;;;;;;3.78;0.32;;;;;;;;;;4976859;28;20041;-47
2023/03/21 09:33:50;;;;;;;4.20;0.43;;;;;;;;;;5008445;28;20033;-48
2023/03/21 09:36:20;;;;;;;4.15;0.22;;;;;;;;;;4978909;28;20049;-48
2023/03/21 09:38:49;;;;;;;3.08;0.50;;;;;;;;;;4980560;28;20571;-48
2023/03/21 09:41:26;;;;;;;4.05;0.55;;;;;;;;;;4983239;28;20488;-49
2023/03/21 09:44:06;;;;;;;5.47;0.40;;;;;;;;;;4995096;28;20918;-48
2023/03/21 09:46:41;;;;;;;2.17;0.20;;;;;;;;;;4982507;28;20717;-51
2023/03/21 09:49:11;;;;;;;4.93;0.35;;;;;;;;;;4997589;28;20040;-48
2023/03/21 09:51:44;;;;;;;1.98;0.30;;;;;;;;;;5027189;28;20045;-45
2023/03/21 09:54:13;;;;;;;1.85;0.30;;;;;;;;;;5000758;28;20806;-49
2023/03/21 09:56:42;;;;;;;3.85;0.30;;;;;;;;;;5015625;28;20131;-48
2023/03/21 09:59:14;;;;;;;2.03;0.30;;;;;;;;;;4999704;28;20065;-47
2023/03/21 10:01:44;;;;;;;3.33;0.40;;;;;;;;;;5009266;28;20041;-49
2023/03/21 10:04:14;;;;;;;2.83;0.28;;;;;;;;;;5010143;28;20157;-50
2023/03/21 10:06:44;;;;;;;2.17;0.30;;;;;;;;;;5010373;28;20565;-46
2023/03/21 10:09:15;;;;;;;3.80;0.32;;;;;;;;;;5000314;28;21104;-48
2023/03/21 10:11:45;;;;;;;6.43;0.43;;;;;;;;;;5014887;28;20052;-47
2023/03/21 10:14:16;;;;;;;1.88;0.30;;;;;;;;;;5016615;28;20041;-47
2023/03/21 10:16:45;;;;;;;1.85;0.40;;;;;;;;;;5013091;28;20552;-49
2023/03/21 10:19:13;;;;;;;3.50;0.40;;;;;;;;;;5010764;28;20470;-45
2023/03/21 10:21:44;;;;;;;2.55;0.38;;;;;;;;;;5013756;28;20116;-47
2023/03/21 10:24:33;;;;;;;4.43;0.30;;;;;;;;;;5001190;28;20124;-47
2023/03/21 10:27:01;;;;;;;2.80;0.40;;;;;;;;;;5019989;28;20091;-46
2023/03/21 10:29:31;;;;;;;2.58;0.20;;;;;;;;;;5014602;28;20159;-49
2023/03/21 10:31:59;;;;;;;4.53;0.30;;;;;;;;;;5018348;28;20103;-48
2023/03/21 10:34:30;;;;;;;2.17;0.28;;;;;;;;;;5008372;28;20135;-48
2023/03/21 10:36:58;;;;;;;7.50;0.60;;;;;;;;;;5009325;28;20048;-46
2023/03/21 10:39:26;;;;;;;3.22;0.28;;;;;;;;;;5005930;28;20136;-47
2023/03/21 10:41:55;;;;;;;3.65;0.30;;;;;;;;;;5004990;28;20493;-47
2023/03/21 10:44:28;;;;;;;3.53;0.40;;;;;;;;;;5020560;28;20037;-46
2023/03/21 10:46:56;;;;;;;3.72;0.50;;;;;;;;;;5005100;28;20560;-48
2023/03/21 10:49:26;;;;;;;4.73;0.20;;;;;;;;;;5003518;28;20037;-45
2023/03/21 10:51:56;;;;;;;2.67;0.30;;;;;;;;;;5018990;28;20116;-47
2023/03/21 10:54:26;;;;;;;6.40;0.52;;;;;;;;;;5034594;28;20531;-47
2023/03/21 10:56:57;;;;;;;1.48;0.30;;;;;;;;;;5013874;28;20443;-46
2023/03/21 10:59:26;;;;;;;3.88;0.25;;;;;;;;;;5013803;28;20542;-48
2023/03/21 11:01:58;;;;;;;3.57;0.30;;;;;;;;;;5005540;28;20123;-47
2023/03/21 11:04:27;;;;;;;4.60;0.32;;;;;;;;;;5016992;28;20049;-49
2023/03/21 11:06:56;;;;;;;2.17;0.30;;;;;;;;;;5016436;28;20095;-49
2023/03/21 11:09:24;;;;;;;3.58;0.38;;;;;;;;;;5006785;28;20124;-45
2023/03/21 11:11:53;;;;;;;3.38;0.50;;;;;;;;;;5011883;28;20088;-46
2023/03/21 11:14:27;;;;;;;3.03;0.50;;;;;;;;;;5014160;28;20107;-48
2023/03/21 11:16:55;;;;;;;2.15;0.30;;;;;;;;;;4999325;28;20126;-49
2023/03/21 11:19:28;;;;;;;2.17;0.30;;;;;;;;;;5018584;28;20056;-47
2023/03/21 11:21:56;;;;;;;3.20;0.38;;;;;;;;;;5004645;28;20043;-46
2023/03/21 11:24:27;;;;;;;4.00;0.40;;;;;;;;;;5009383;28;20408;-50
2023/03/21 11:26:55;;;;;;;1.87;0.23;;;;;;;;;;5009733;28;20091;-55
2023/03/21 11:29:28;;;;;;;2.40;0.35;;;;;;;;;;4308416;28;10000412;-47
2023/03/21 11:32:01;;;;;;;3.45;0.40;;;;;;;;;;5003407;28;20037;-46
2023/03/21 11:34:32;;;;;;;3.43;0.40;;;;;;;;;;5002599;28;20076;-47
2023/03/21 11:37:02;;;;;;;1.67;0.30;;;;;;;;;;5010325;28;20895;-47
2023/03/21 11:39:36;;;;;;;2.40;0.50;;;;;;;;;;5004630;28;20491;-48
2023/03/21 11:42:03;;;;;;;1.88;0.30;;;;;;;;;;5013506;28;20168;-50
2023/03/21 11:44:34;;;;;;;1.83;0.32;;;;;;;;;;5017505;28;20129;-48
2023/03/21 11:47:02;;;;;;;3.10;0.30;;;;;;;;;;5013543;28;20061;-47
2023/03/21 11:49:30;;;;;;;2.95;0.30;;;;;;;;;;5004907;28;20136;-46
2023/03/21 11:52:03;;;;;;;2.50;0.32;;;;;;;;;;5005800;28;20045;-47
2023/03/21 11:54:34;;;;;;;1.60;0.32;;;;;;;;;;5001288;28;20281;-45
2023/03/21 11:57:07;;;;;;;2.35;0.40;;;;;;;;;;5015907;28;20543;-47
2023/03/21 11:59:41;;;;;;;2.63;0.30;;;;;;;;;;5013637;28;20491;-46
2023/03/21 12:02:32;;;;;;;1.98;0.30;;;;;;;;;;5004609;28;20041;-50
2023/03/21 12:05:04;;;;;;;2.13;0.30;;;;;;;;;;4982081;28;20056;-51
2023/03/21 12:07:37;;;;;;;1.90;0.20;;;;;;;;;;5004505;28;20964;-50
2023/03/21 12:10:14;;;;;;;3.65;0.32;;;;;;;;;;5021279;28;20040;-47
2023/03/21 12:12:49;;;;;;;2.27;0.30;;;;;;;;;;5024154;28;20048;-46
2023/03/21 12:15:22;;;;;;;2.80;0.30;;;;;;;;;;5004361;28;20553;-49
2023/03/21 12:17:54;;;;;;;2.10;0.30;;;;;;;;;;5012091;28;20499;-47
2023/03/21 12:20:29;;;;;;;1.77;0.30;;;;;;;;;;5009199;28;20037;-47
2023/03/21 12:23:06;;;;;;;3.17;0.43;;;;;;;;;;5013069;28;20067;-48
2023/03/21 12:25:38;;;;;;;2.07;0.30;;;;;;;;;;5013644;28;20045;-45
2023/03/21 12:28:10;;;;;;;2.40;0.30;;;;;;;;;;5006123;28;20727;-47
2023/03/21 12:30:48;;;;;;;3.50;0.30;;;;;;;;;;5014748;28;20473;-47
2023/03/21 12:33:25;;;;;;;2.20;0.30;;;;;;;;;;5000531;28;20138;-46
2023/03/21 12:36:02;;;;;;;2.05;0.32;;;;;;;;;;5002140;28;20081;-47
2023/03/21 12:38:35;;;;;;;3.23;0.40;;;;;;;;;;5009993;28;20517;-47
2023/03/21 12:41:07;;;;;;;1.80;0.30;;;;;;;;;;5004400;28;20128;-46
2023/03/21 12:43:41;;;;;;;1.58;0.30;;;;;;;;;;4983294;28;20040;-46
2023/03/21 12:46:13;;;;;;;1.67;0.20;;;;;;;;;;4979726;28;20076;-45
2023/03/21 12:48:43;;;;;;;1.42;0.30;;;;;;;;;;4977783;28;20687;-47
2023/03/21 12:51:13;;;;;;;1.20;0.20;;;;;;;;;;4979153;28;20123;-46
2023/03/21 12:53:49;;;;;;;4.03;0.30;;;;;;;;;;4977568;28;20045;-45
2023/03/21 12:56:19;;;;;;;4.97;0.50;;;;;;;;;;4980829;28;20037;-48
2023/03/21 12:58:49;;;;;;;1.73;0.30;;;;;;;;;;4977544;28;20587;-46
2023/03/21 13:01:19;;;;;;;1.60;0.30;;;;;;;;;;4979343;28;20157;-48
2023/03/21 13:03:51;;;;;;;1.97;0.40;;;;;;;;;;5004314;28;20036;-47
2023/03/21 13:06:20;;;;;;;3.22;0.28;;;;;;;;;;4984994;28;20462;-47
2023/03/21 13:08:49;;;;;;;2.85;0.30;;;;;;;;;;4970428;28;20061;-46
2023/03/21 13:11:19;;;;;;;2.10;0.35;;;;;;;;;;4979713;28;20113;-47
2023/03/21 13:13:50;;;;;;;2.08;0.32;;;;;;;;;;4986190;28;20044;-48
2023/03/21 13:16:20;;;;;;;1.60;0.20;;;;;;;;;;4991367;28;20072;-50
2023/03/21 13:18:55;;;;;;;2.50;0.30;;;;;;;;;;4283460;28;10000732;-46
2023/03/21 13:21:37;;;;;;;4.13;0.30;;;;;;;;;;4987194;28;20068;-48
2023/03/21 13:24:16;;;;;;;2.35;0.40;;;;;;;;;;4983401;28;20086;-47
2023/03/21 13:26:45;;;;;;;2.33;0.30;;;;;;;;;;4976654;28;20617;-46
2023/03/21 13:29:14;;;;;;;4.13;0.40;;;;;;;;;;4973564;28;20041;-47
2023/03/21 13:31:47;;;;;;;3.83;0.40;;;;;;;;;;4983220;28;20541;-47
2023/03/21 13:34:21;;;;;;;1.85;0.40;;;;;;;;;;4985828;28;20157;-49
2023/03/21 13:36:49;;;;;;;2.50;0.30;;;;;;;;;;4982042;28;20053;-46
2023/03/21 13:39:18;;;;;;;4.97;0.50;;;;;;;;;;4981305;28;20044;-49
2023/03/21 13:41:47;;;;;;;5.47;0.40;;;;;;;;;;4980032;28;20698;-48
2023/03/21 13:44:25;;;;;;;5.13;0.60;;;;;;;;;;4981873;28;20041;-46
2023/03/21 13:46:59;;;;;;;4.57;0.50;;;;;;;;;;4294197;28;10000754;-50
2023/03/21 13:49:31;;;;;;;3.88;0.22;;;;;;;;;;4963303;28;20136;-50
2023/03/21 13:52:00;;;;;;;4.30;0.33;;;;;;;;;;4984655;28;21203;-47
2023/03/21 13:54:29;;;;;;;2.40;0.30;;;;;;;;;;4991766;28;20132;-47
2023/03/21 13:56:58;;;;;;;5.57;0.60;;;;;;;;;;4975321;28;20146;-46
2023/03/21 13:59:41;;;;;;;3.47;0.68;;;;;;;;;;4984163;28;20041;-46
2023/03/21 14:02:22;;;;;;;4.22;0.73;;;;;;;;;;4991185;28;20547;-49
2023/03/21 14:04:56;;;;;;;2.60;0.37;;;;;;;;;;4995024;28;20033;-45
2023/03/21 14:07:35;;;;;;;4.28;0.40;;;;;;;;;;4984424;28;20780;-47
2023/03/21 14:10:05;;;;;;;7.45;0.43;;;;;;;;;;4984687;28;20041;-45
2023/03/21 14:12:36;;;;;;;2.17;0.38;;;;;;;;;;4982398;28;20710;-48
2023/03/21 14:15:06;;;;;;;2.17;0.30;;;;;;;;;;4970369;28;20110;-45
2023/03/21 14:17:50;;;;;;;5.13;0.70;;;;;;;;;;4989622;28;20139;-48
2023/03/21 14:20:20;;;;;;;2.83;0.40;;;;;;;;;;4970629;28;20653;-45
2023/03/21 14:22:48;;;;;;;3.92;0.43;;;;;;;;;;4984158;28;20056;-46
2023/03/21 14:25:17;;;;;;;3.15;0.60;;;;;;;;;;4979309;28;20142;-46
2023/03/21 14:27:47;;;;;;;4.15;0.88;;;;;;;;;;4982619;28;20141;-45
2023/03/21 14:30:20;;;;;;;5.47;0.50;;;;;;;;;;4971178;28;20092;-46
2023/03/21 14:32:49;;;;;;;3.55;0.50;;;;;;;;;;4987897;28;20076;-48
2023/03/21 14:35:20;;;;;;;3.30;0.40;;;;;;;;;;4983999;28;20115;-47
2023/03/21 14:37:49;;;;;;;6.18;0.40;;;;;;;;;;4979629;28;20131;-47
2023/03/21 14:40:21;;;;;;;3.47;0.50;;;;;;;;;;4988157;28;20045;-46
2023/03/21 14:42:49;;;;;;;2.07;0.70;;;;;;;;;;4963331;28;20042;-45
2023/03/21 14:45:18;;;;;;;6.65;0.55;;;;;;;;;;4997136;28;20894;-47
2023/03/21 14:48:00;;;;;;;2.47;0.40;;;;;;;;;;4967848;28;20045;-47
2023/03/21 14:50:33;;;;;;;4.45;0.60;;;;;;;;;;4975699;28;20700;-47
2023/03/21 14:53:01;;;;;;;2.63;0.50;;;;;;;;;;5004445;28;20151;-46
2023/03/21 14:55:30;;;;;;;2.13;0.33;;;;;;;;;;4996130;28;20787;-47
2023/03/21 14:57:59;;;;;;;6.40;0.45;;;;;;;;;;4986854;28;20069;-46
2023/03/21 15:00:28;;;;;;;4.30;0.60;;;;;;;;;;4980982;28;20435;-47
2023/03/21 15:02:58;;;;;;;9.45;0.40;;;;;;;;;;4985679;28;20566;-46
2023/03/21 15:05:29;;;;;;;3.70;0.40;;;;;;;;;;4973036;28;20512;-45